createdAt,value
2019-05-01T00:02:10.178Z,22.90
2019-05-01T00:04:21.161Z,23.00
2019-05-01T00:06:26.579Z,22.80
2019-05-01T00:08:30.252Z,23.40
2019-05-01T00:10:34.040Z,23.20
2019-05-01T00:12:37.808Z,23.30
2019-05-01T00:14:41.534Z,22.80
2019-05-01T00:16:45.316Z,23.30
2019-05-01T00:18:49.047Z,23.00
2019-05-01T00:20:52.597Z,23.40
2019-05-01T00:22:56.329Z,23.30
2019-05-01T00:24:59.984Z,24.50
2019-05-01T00:27:03.630Z,23.70
2019-05-01T00:29:07.381Z,24.40
2019-05-01T00:31:11.177Z,24.60
2019-05-01T00:33:14.948Z,24.00
2019-05-01T00:35:18.612Z,25.00
2019-05-01T00:37:22.245Z,25.70
2019-05-01T00:39:26.017Z,26.40
2019-05-01T00:41:29.666Z,27.10
2019-05-01T00:43:33.298Z,26.80
2019-05-01T00:45:36.942Z,27.20
2019-05-01T00:47:40.641Z,26.80
2019-05-01T00:49:44.216Z,27.20
2019-05-01T00:51:47.870Z,26.90
2019-05-01T00:53:51.476Z,26.70
2019-05-01T00:56:02.595Z,26.70
2019-05-01T00:58:19.952Z,26.60
2019-05-01T01:00:27.896Z,26.40
2019-05-01T01:02:36.336Z,27.20
2019-05-01T01:04:39.963Z,26.90
2019-05-01T01:06:43.615Z,27.10
2019-05-01T01:08:47.292Z,27.60
2019-05-01T01:10:50.950Z,27.50
2019-05-01T01:12:54.579Z,27.60
2019-05-01T01:14:58.166Z,27.70
2019-05-01T01:17:01.903Z,27.80
2019-05-01T01:19:05.723Z,28.10
2019-05-01T01:21:09.375Z,27.90
2019-05-01T01:23:13.022Z,28.60
2019-05-01T01:25:16.662Z,29.10
2019-05-01T01:27:20.394Z,29.20
2019-05-01T01:29:24.133Z,29.50
2019-05-01T01:31:28.009Z,29.70
2019-05-01T01:33:31.706Z,29.40
2019-05-01T01:35:35.430Z,29.20
2019-05-01T01:37:39.169Z,29.40
2019-05-01T01:39:42.930Z,29.70
2019-05-01T01:41:47.026Z,30.00
2019-05-01T01:44:08.717Z,30.20
2019-05-01T01:46:16.997Z,30.30
2019-05-01T01:48:20.747Z,29.40
2019-05-01T01:50:24.551Z,29.70
2019-05-01T01:52:28.750Z,31.10
2019-05-01T01:54:32.854Z,31.20
2019-05-01T01:56:36.652Z,30.10
2019-05-01T01:58:40.386Z,30.90
2019-05-01T02:00:45.879Z,33.00
2019-05-01T02:02:51.084Z,33.20
2019-05-01T02:04:56.413Z,33.20
2019-05-01T02:07:00.151Z,33.30
2019-05-01T02:09:05.381Z,34.00
2019-05-01T02:11:09.206Z,34.40
2019-05-01T02:13:13.025Z,34.60
2019-05-01T02:15:17.047Z,34.00
2019-05-01T02:17:20.799Z,34.50
2019-05-01T02:19:24.499Z,34.30
2019-05-01T02:21:28.159Z,34.70
2019-05-01T02:23:31.845Z,35.20
2019-05-01T02:25:37.628Z,35.20
2019-05-01T02:27:43.387Z,36.00
2019-05-01T02:29:49.386Z,36.80
2019-05-01T02:31:54.440Z,36.70
2019-05-01T02:33:58.504Z,37.60
2019-05-01T02:36:03.506Z,38.70
2019-05-01T02:38:08.516Z,39.70
2019-05-01T02:40:37.827Z,42.10
2019-05-01T02:42:42.559Z,42.20
2019-05-01T02:44:49.249Z,44.30
2019-05-01T02:46:55.922Z,44.40
2019-05-01T02:49:08.575Z,45.20
2019-05-01T02:51:13.227Z,45.20
2019-05-01T02:53:18.337Z,44.50
2019-05-01T02:55:23.847Z,44.50
2019-05-01T02:57:28.449Z,45.10
2019-05-01T02:59:33.717Z,45.10
2019-05-01T03:01:47.048Z,45.30
2019-05-01T03:03:43.833Z,44.60
2019-05-01T03:05:47.668Z,44.30
2019-05-01T03:07:51.398Z,44.30
2019-05-01T03:09:55.410Z,43.70
2019-05-01T03:12:00.330Z,44.50
2019-05-01T03:14:05.362Z,43.40
2019-05-01T03:16:10.816Z,43.80
2019-05-01T03:18:16.183Z,44.10
2019-05-01T03:20:24.806Z,44.30
2019-05-01T03:22:32.880Z,44.50
2019-05-01T03:24:37.200Z,44.60
2019-05-01T03:26:41.093Z,45.00
2019-05-01T03:28:45.323Z,45.50
2019-05-01T03:30:49.334Z,46.00
2019-05-01T03:32:52.966Z,46.80
2019-05-01T03:34:57.464Z,47.40
2019-05-01T03:37:01.269Z,47.40
2019-05-01T03:39:06.253Z,47.80
2019-05-01T03:41:10.124Z,47.30
2019-05-01T03:43:13.850Z,47.20
2019-05-01T03:45:17.740Z,48.40
2019-05-01T03:47:21.733Z,49.40
2019-05-01T03:49:26.466Z,49.20
2019-05-01T03:51:30.361Z,48.40
2019-05-01T03:53:34.931Z,48.30
2019-05-01T03:55:38.787Z,49.00
2019-05-01T03:57:43.076Z,48.70
2019-05-01T03:59:46.874Z,48.80
2019-05-01T04:02:08.861Z,48.50
2019-05-01T04:04:14.148Z,48.50
2019-05-01T04:06:18.230Z,49.80
2019-05-01T04:08:21.961Z,49.60
2019-05-01T04:10:25.780Z,49.80
2019-05-01T04:12:29.572Z,50.30
2019-05-01T04:14:33.580Z,50.60
2019-05-01T04:16:37.842Z,51.80
2019-05-01T04:18:41.670Z,52.10
2019-05-01T04:20:45.826Z,52.90
2019-05-01T04:22:49.699Z,53.20
2019-05-01T04:24:53.426Z,53.20
2019-05-01T04:26:58.210Z,53.70
2019-05-01T04:29:06.841Z,53.50
2019-05-01T04:31:24.084Z,53.50
2019-05-01T04:33:28.492Z,52.70
2019-05-01T04:35:48.990Z,53.10
2019-05-01T04:37:53.232Z,53.90
2019-05-01T04:39:57.121Z,55.00
2019-05-01T04:42:00.878Z,55.30
2019-05-01T04:44:04.605Z,55.90
2019-05-01T04:46:08.430Z,56.50
2019-05-01T04:48:12.791Z,57.40
2019-05-01T04:50:16.579Z,58.40
2019-05-01T04:52:20.433Z,60.00
2019-05-01T04:54:24.266Z,60.30
2019-05-01T04:56:28.035Z,60.30
2019-05-01T04:58:31.763Z,60.40
2019-05-01T05:00:35.965Z,60.20
2019-05-01T05:02:41.339Z,60.60
2019-05-01T05:04:45.045Z,60.90
2019-05-01T05:06:48.837Z,60.70
2019-05-01T05:08:53.074Z,60.50
2019-05-01T05:10:58.541Z,60.60
2019-05-01T05:13:06.764Z,60.80
2019-05-01T05:15:12.177Z,60.20
2019-05-01T05:17:17.697Z,60.00
2019-05-01T05:19:21.513Z,60.80
2019-05-01T05:21:25.313Z,61.60
2019-05-01T05:23:29.243Z,60.70
2019-05-01T05:25:32.985Z,60.90
2019-05-01T05:27:37.253Z,60.20
2019-05-01T05:29:41.382Z,60.00
2019-05-01T05:31:45.815Z,59.40
2019-05-01T05:33:49.767Z,59.50
2019-05-01T05:35:56.493Z,59.30
2019-05-01T05:38:07.671Z,60.90
2019-05-01T05:40:11.315Z,66.30
2019-05-01T05:42:15.803Z,70.90
2019-05-01T05:44:19.612Z,75.50
2019-05-01T05:46:23.658Z,76.20
2019-05-01T05:48:27.532Z,73.40
2019-05-01T05:50:39.012Z,72.10
2019-05-01T05:52:49.646Z,74.20
2019-05-01T05:55:05.594Z,77.10
2019-05-01T05:57:25.777Z,82.60
2019-05-01T05:59:36.827Z,85.70
2019-05-01T06:02:00.458Z,85.60
2019-05-01T06:04:26.235Z,85.50
2019-05-01T06:06:39.340Z,84.50
2019-05-01T06:08:44.566Z,82.10
2019-05-01T06:11:07.744Z,78.60
2019-05-01T06:13:17.988Z,74.80
2019-05-01T06:15:23.912Z,74.10
2019-05-01T06:17:41.235Z,74.40
2019-05-01T06:19:52.256Z,74.70
2019-05-01T06:22:05.063Z,75.40
2019-05-01T06:24:08.763Z,74.40
2019-05-01T06:26:26.492Z,73.30
2019-05-01T06:28:30.779Z,75.10
2019-05-01T06:30:35.623Z,71.50
2019-05-01T06:32:40.361Z,68.30
2019-05-01T06:34:44.196Z,66.30
2019-05-01T06:36:49.757Z,65.00
2019-05-01T06:38:53.729Z,66.10
2019-05-01T06:40:59.981Z,63.70
2019-05-01T06:43:03.896Z,62.30
2019-05-01T06:45:13.105Z,62.90
2019-05-01T06:47:22.019Z,65.80
2019-05-01T06:49:46.526Z,64.00
2019-05-01T06:51:53.902Z,63.90
2019-05-01T06:53:58.171Z,60.70
2019-05-01T06:56:01.990Z,59.90
2019-05-01T06:58:05.980Z,60.50
2019-05-01T07:00:11.812Z,59.10
2019-05-01T07:02:16.446Z,55.90
2019-05-01T07:04:20.386Z,52.70
2019-05-01T07:06:31.105Z,41.70
2019-05-01T07:08:34.337Z,35.90
2019-05-01T07:10:43.755Z,36.30
2019-05-01T07:12:41.690Z,35.70
2019-05-01T07:14:47.070Z,35.70
2019-05-01T07:16:51.681Z,31.70
2019-05-01T07:18:58.407Z,30.50
2019-05-01T07:21:02.282Z,32.60
2019-05-01T07:23:06.332Z,31.40
2019-05-01T07:25:10.383Z,31.30
2019-05-01T07:27:14.266Z,31.30
2019-05-01T07:29:22.332Z,29.10
2019-05-01T07:31:30.868Z,27.20
2019-05-01T07:33:31.893Z,26.30
2019-05-01T07:35:36.768Z,25.40
2019-05-01T07:37:41.278Z,23.80
2019-05-01T07:39:49.805Z,20.80
2019-05-01T07:41:50.463Z,20.60
2019-05-01T07:43:59.596Z,19.70
2019-05-01T07:46:06.569Z,19.70
2019-05-01T07:48:10.414Z,18.00
2019-05-01T07:50:17.161Z,16.50
2019-05-01T07:52:21.590Z,16.50
2019-05-01T07:54:25.332Z,15.10
2019-05-01T07:56:30.534Z,14.90
2019-05-01T07:58:34.766Z,12.20
2019-05-01T08:01:06.488Z,12.00
2019-05-01T08:03:10.375Z,13.10
2019-05-01T08:05:14.256Z,12.00
2019-05-01T08:07:18.079Z,12.00
2019-05-01T08:09:22.210Z,11.80
2019-05-01T08:11:25.995Z,10.10
2019-05-01T08:13:30.593Z,9.40
2019-05-01T08:15:35.130Z,7.60
2019-05-01T08:17:40.460Z,6.80
2019-05-01T08:19:48.912Z,5.10
2019-05-01T08:21:56.893Z,6.40
2019-05-01T08:24:01.784Z,4.70
2019-05-01T08:26:08.776Z,6.40
2019-05-01T08:28:19.763Z,6.80
2019-05-01T08:30:31.254Z,6.60
2019-05-01T08:32:38.991Z,6.70
2019-05-01T08:34:48.771Z,2.50
2019-05-01T08:36:48.465Z,4.80
2019-05-01T08:38:52.411Z,5.80
2019-05-01T08:40:56.786Z,5.90
2019-05-01T08:43:00.694Z,5.50
2019-05-01T08:45:10.236Z,3.30
2019-05-01T08:47:34.175Z,1.00
2019-05-01T08:49:49.389Z,1.00
2019-05-01T08:51:48.204Z,1.00
2019-05-01T08:53:52.730Z,1.00
2019-05-01T08:55:57.258Z,1.00
2019-05-01T08:58:01.100Z,1.00
2019-05-01T09:00:07.124Z,1.00
2019-05-01T09:02:11.021Z,1.00
2019-05-01T09:04:14.837Z,1.00
2019-05-01T09:06:18.655Z,1.00
2019-05-01T09:08:26.978Z,1.00
2019-05-01T09:10:30.312Z,1.00
2019-05-01T09:12:34.038Z,1.00
2019-05-01T09:14:37.920Z,1.00
2019-05-01T09:16:41.898Z,1.00
2019-05-01T09:18:45.698Z,1.00
2019-05-01T09:20:51.085Z,1.00
2019-05-01T09:22:54.908Z,1.00
2019-05-01T09:24:59.884Z,1.00
2019-05-01T09:27:11.781Z,1.00
2019-05-01T09:29:17.876Z,1.00
2019-05-01T09:31:23.296Z,1.00
2019-05-01T09:33:30.916Z,1.00
2019-05-01T09:35:32.555Z,1.00
2019-05-01T09:37:36.308Z,1.00
2019-05-01T09:39:40.146Z,1.00
2019-05-01T09:41:47.335Z,1.00
2019-05-01T09:43:49.259Z,1.00
2019-05-01T09:45:52.935Z,1.00
2019-05-01T09:47:56.758Z,1.00
2019-05-01T09:50:00.488Z,1.00
2019-05-01T09:52:06.458Z,1.00
2019-05-01T09:54:20.333Z,1.00
2019-05-01T09:56:25.535Z,1.00
2019-05-01T09:58:29.228Z,1.00
2019-05-01T10:00:33.627Z,1.00
2019-05-01T10:02:37.583Z,1.00
2019-05-01T10:04:42.742Z,1.00
2019-05-01T10:06:47.721Z,1.00
2019-05-01T10:08:51.918Z,1.00
2019-05-01T10:10:59.868Z,1.00
2019-05-01T10:13:02.698Z,1.00
2019-05-01T10:15:07.942Z,1.00
2019-05-01T10:17:13.500Z,1.00
2019-05-01T10:19:17.139Z,1.00
2019-05-01T10:21:22.406Z,1.00
2019-05-01T10:23:26.295Z,1.00
2019-05-01T10:25:30.178Z,1.00
2019-05-01T10:27:38.243Z,1.00
2019-05-01T10:30:01.698Z,1.00
2019-05-01T10:32:07.287Z,1.00
2019-05-01T10:34:15.510Z,1.00
2019-05-01T10:36:35.737Z,1.00
2019-05-01T10:38:39.821Z,1.00
2019-05-01T10:40:46.469Z,1.00
2019-05-01T10:42:50.268Z,1.00
2019-05-01T10:44:54.026Z,1.00
2019-05-01T10:46:57.797Z,1.00
2019-05-01T10:49:01.650Z,1.00
2019-05-01T10:51:05.494Z,1.00
2019-05-01T10:53:09.382Z,1.00
2019-05-01T10:55:13.088Z,1.00
2019-05-01T10:57:16.937Z,1.00
2019-05-01T10:59:20.695Z,1.00
2019-05-01T11:01:26.071Z,1.00
2019-05-01T11:03:29.965Z,1.00
2019-05-01T11:05:33.688Z,1.00
2019-05-01T11:07:37.452Z,1.00
2019-05-01T11:09:41.260Z,1.00
2019-05-01T11:11:44.910Z,1.00
2019-05-01T11:13:51.012Z,1.00
2019-05-01T11:15:57.300Z,1.00
2019-05-01T11:18:01.056Z,1.00
2019-05-01T11:20:07.112Z,1.00
2019-05-01T11:22:10.896Z,1.00
2019-05-01T11:24:15.113Z,1.00
2019-05-01T11:26:20.343Z,1.00
2019-05-01T11:28:24.064Z,1.00
2019-05-01T11:30:28.461Z,1.00
2019-05-01T11:32:33.842Z,1.00
2019-05-01T11:34:41.615Z,1.00
2019-05-01T11:36:55.677Z,1.00
2019-05-01T11:39:17.466Z,1.00
2019-05-01T11:41:39.403Z,1.00
2019-05-01T11:43:43.287Z,1.00
2019-05-01T11:45:47.117Z,1.00
2019-05-01T11:47:50.846Z,1.00
2019-05-01T11:49:54.548Z,1.00
2019-05-01T11:51:58.301Z,1.00
2019-05-01T11:54:02.285Z,1.00
2019-05-01T11:56:06.344Z,1.00
2019-05-01T11:58:10.165Z,1.00
2019-05-01T12:00:16.256Z,1.00
2019-05-01T12:02:19.971Z,1.00
2019-05-01T12:04:23.796Z,1.00
2019-05-01T12:06:27.537Z,1.00
2019-05-01T12:08:31.322Z,1.00
2019-05-01T12:10:35.098Z,1.00
2019-05-01T12:12:38.834Z,1.00
2019-05-01T12:14:42.576Z,1.00
2019-05-01T12:16:53.937Z,1.00
2019-05-01T12:18:57.775Z,1.00
2019-05-01T12:21:01.497Z,1.00
2019-05-01T12:23:05.305Z,1.00
2019-05-01T12:25:09.180Z,1.00
2019-05-01T12:27:12.935Z,1.00
2019-05-01T12:29:16.702Z,1.00
2019-05-01T12:31:20.339Z,1.00
2019-05-01T12:33:23.925Z,1.00
2019-05-01T12:35:27.700Z,1.00
2019-05-01T12:37:32.959Z,1.00
2019-05-01T12:39:36.840Z,1.00
2019-05-01T12:41:42.172Z,1.00
2019-05-01T12:43:48.325Z,1.00
2019-05-01T12:45:52.453Z,1.00
2019-05-01T12:47:58.011Z,1.00
2019-05-01T12:50:01.751Z,1.00
2019-05-01T12:52:10.975Z,1.00
2019-05-01T12:54:16.292Z,1.00
2019-05-01T12:56:24.405Z,1.00
2019-05-01T12:58:28.079Z,1.00
2019-05-01T13:00:47.946Z,1.00
2019-05-01T13:02:51.686Z,1.00
2019-05-01T13:04:55.378Z,1.00
2019-05-01T13:06:59.738Z,1.00
2019-05-01T13:09:05.345Z,1.00
2019-05-01T13:11:09.243Z,1.00
2019-05-01T13:13:13.219Z,1.00
2019-05-01T13:15:17.158Z,1.00
2019-05-01T13:17:21.066Z,1.00
2019-05-01T13:19:24.914Z,1.00
2019-05-01T13:21:28.811Z,1.00
2019-05-01T13:23:32.476Z,1.00
2019-05-01T13:25:36.434Z,1.00
2019-05-01T13:27:44.489Z,1.00
2019-05-01T13:29:52.456Z,1.00
2019-05-01T13:32:03.844Z,1.00
2019-05-01T13:34:08.984Z,1.00
2019-05-01T13:36:12.683Z,1.00
2019-05-01T13:38:16.395Z,1.00
2019-05-01T13:40:20.853Z,1.00
2019-05-01T13:42:27.812Z,1.00
2019-05-01T13:44:31.717Z,1.00
2019-05-01T13:46:35.467Z,1.00
2019-05-01T13:48:39.129Z,1.00
2019-05-01T13:50:44.391Z,1.00
2019-05-01T13:52:48.124Z,1.00
2019-05-01T13:54:51.838Z,1.00
2019-05-01T13:56:56.035Z,1.00
2019-05-01T13:58:59.805Z,1.00
2019-05-01T14:01:03.668Z,1.00
2019-05-01T14:03:07.348Z,1.00
2019-05-01T14:05:11.535Z,1.00
2019-05-01T14:07:16.937Z,1.00
2019-05-01T14:09:22.553Z,1.00
2019-05-01T14:11:26.464Z,1.00
2019-05-01T14:13:30.294Z,1.00
2019-05-01T14:15:34.124Z,1.00
2019-05-01T14:17:37.970Z,1.00
2019-05-01T14:19:43.392Z,1.00
2019-05-01T14:21:48.845Z,1.00
2019-05-01T14:23:54.160Z,1.00
2019-05-01T14:25:59.566Z,1.00
2019-05-01T14:28:03.345Z,1.00
2019-05-01T14:30:09.561Z,1.00
2019-05-01T14:32:13.361Z,1.00
2019-05-01T14:34:17.249Z,1.00
2019-05-01T14:36:21.109Z,1.00
2019-05-01T14:38:26.244Z,1.00
2019-05-01T14:40:30.000Z,1.00
2019-05-01T14:42:34.122Z,1.00
2019-05-01T14:44:37.956Z,1.00
2019-05-01T14:46:41.754Z,1.00
2019-05-01T14:48:45.875Z,1.00
2019-05-01T14:50:49.804Z,1.00
2019-05-01T14:52:53.608Z,1.00
2019-05-01T14:54:57.357Z,1.00
2019-05-01T14:57:01.290Z,1.00
2019-05-01T14:59:05.112Z,1.00
2019-05-01T15:01:10.560Z,1.00
2019-05-01T15:03:14.429Z,1.00
2019-05-01T15:05:18.255Z,1.00
2019-05-01T15:07:22.183Z,1.00
2019-05-01T15:09:25.967Z,1.00
2019-05-01T15:11:31.138Z,1.00
2019-05-01T15:13:42.606Z,1.00
2019-05-01T15:15:50.765Z,1.00
2019-05-01T15:18:08.194Z,1.00
2019-05-01T15:20:12.493Z,1.00
2019-05-01T15:22:16.310Z,1.00
2019-05-01T15:24:20.143Z,1.00
2019-05-01T15:26:23.976Z,1.00
2019-05-01T15:28:27.703Z,1.00
2019-05-01T15:30:31.560Z,1.00
2019-05-01T15:32:35.408Z,1.00
2019-05-01T15:34:40.874Z,1.00
2019-05-01T15:36:45.029Z,1.00
2019-05-01T15:38:48.906Z,1.00
2019-05-01T15:41:06.473Z,1.00
2019-05-01T15:43:29.578Z,1.00
2019-05-01T15:45:33.507Z,1.00
2019-05-01T15:47:37.297Z,1.00
2019-05-01T15:49:40.950Z,1.00
2019-05-01T15:51:45.190Z,1.00
2019-05-01T15:53:48.888Z,1.00
2019-05-01T15:55:52.558Z,1.00
2019-05-01T15:57:56.519Z,1.00
2019-05-01T16:00:00.434Z,1.00
2019-05-01T16:02:04.352Z,1.00
2019-05-01T16:04:08.142Z,1.00
2019-05-01T16:06:11.951Z,1.00
2019-05-01T16:08:15.880Z,1.00
2019-05-01T16:10:21.360Z,1.00
2019-05-01T16:12:26.853Z,1.00
2019-05-01T16:14:30.817Z,1.00
2019-05-01T16:16:34.643Z,1.00
2019-05-01T16:18:38.268Z,1.00
2019-05-01T16:20:41.945Z,1.00
2019-05-01T16:22:45.606Z,1.00
2019-05-01T16:24:49.431Z,1.00
2019-05-01T16:26:53.095Z,1.00
2019-05-01T16:28:56.952Z,1.00
2019-05-01T16:31:02.254Z,1.00
2019-05-01T16:33:06.062Z,1.00
2019-05-01T16:35:09.991Z,1.00
2019-05-01T16:37:13.717Z,1.00
2019-05-01T16:39:21.849Z,1.00
2019-05-01T16:41:27.031Z,1.00
2019-05-01T16:43:30.603Z,1.00
2019-05-01T16:45:34.267Z,1.00
2019-05-01T16:47:37.871Z,1.00
2019-05-01T16:49:42.516Z,1.00
2019-05-01T16:51:46.100Z,1.00
2019-05-01T16:53:51.897Z,1.00
2019-05-01T16:55:55.659Z,1.00
2019-05-01T16:57:59.443Z,1.00
2019-05-01T17:00:05.173Z,1.00
2019-05-01T17:02:10.563Z,1.00
2019-05-01T17:04:24.804Z,1.00
2019-05-01T17:06:35.785Z,1.00
2019-05-01T17:08:46.677Z,1.00
2019-05-01T17:10:51.637Z,1.00
2019-05-01T17:12:56.743Z,1.00
2019-05-01T17:15:00.389Z,1.00
2019-05-01T17:17:05.863Z,1.00
2019-05-01T17:19:09.898Z,1.00
2019-05-01T17:21:13.866Z,1.00
2019-05-01T17:23:17.519Z,1.00
2019-05-01T17:25:21.217Z,1.00
2019-05-01T17:27:24.805Z,1.00
2019-05-01T17:29:28.555Z,1.00
2019-05-01T17:31:32.397Z,1.00
2019-05-01T17:33:36.061Z,1.00
2019-05-01T17:35:41.859Z,1.00
2019-05-01T17:37:45.145Z,1.00
2019-05-01T17:39:48.829Z,1.00
2019-05-01T17:41:52.403Z,1.00
2019-05-01T17:43:56.848Z,1.00
2019-05-01T17:46:00.804Z,1.00
2019-05-01T17:48:04.458Z,1.00
2019-05-01T17:50:08.578Z,1.00
2019-05-01T17:52:12.428Z,1.00
2019-05-01T17:54:15.987Z,1.00
2019-05-01T17:56:27.564Z,1.00
2019-05-01T17:58:25.433Z,1.00
2019-05-01T18:00:36.650Z,1.00
2019-05-01T18:02:41.952Z,1.00
2019-05-01T18:04:47.304Z,1.00
2019-05-01T18:06:52.121Z,1.00
2019-05-01T18:09:02.978Z,1.00
2019-05-01T18:11:01.227Z,1.00
2019-05-01T18:13:04.988Z,1.00
2019-05-01T18:15:08.802Z,1.00
2019-05-01T18:17:12.523Z,1.00
2019-05-01T18:19:16.315Z,1.00
2019-05-01T18:21:20.071Z,1.00
2019-05-01T18:23:42.773Z,1.00
2019-05-01T18:25:48.984Z,1.00
2019-05-01T18:28:03.126Z,1.00
2019-05-01T18:30:08.753Z,1.00
2019-05-01T18:32:14.073Z,1.00
2019-05-01T18:34:17.833Z,1.00
2019-05-01T18:36:24.551Z,1.00
2019-05-01T18:38:47.586Z,1.00
2019-05-01T18:40:56.111Z,1.00
2019-05-01T18:42:59.667Z,1.00
2019-05-01T18:45:06.245Z,1.00
2019-05-01T18:47:09.949Z,1.00
2019-05-01T18:49:13.668Z,1.00
2019-05-01T18:51:19.454Z,1.00
2019-05-01T18:53:24.449Z,1.00
2019-05-01T18:55:30.416Z,1.00
2019-05-01T18:57:35.271Z,1.00
2019-05-01T18:59:39.087Z,1.00
2019-05-01T19:01:43.845Z,1.00
2019-05-01T19:03:48.377Z,1.00
2019-05-01T19:05:52.138Z,1.00
2019-05-01T19:07:55.843Z,1.00
2019-05-01T19:09:59.498Z,1.00
2019-05-01T19:12:03.893Z,1.00
2019-05-01T19:14:08.758Z,1.00
2019-05-01T19:16:14.465Z,1.00
2019-05-01T19:18:18.510Z,1.00
2019-05-01T19:20:22.140Z,1.00
2019-05-01T19:22:25.816Z,1.00
2019-05-01T19:24:32.511Z,1.00
2019-05-01T19:26:38.237Z,1.00
2019-05-01T19:28:40.340Z,1.20
2019-05-01T19:30:44.013Z,1.10
2019-05-01T19:32:47.693Z,1.90
2019-05-01T19:34:51.351Z,2.10
2019-05-01T19:36:55.275Z,2.40
2019-05-01T19:38:58.975Z,2.20
2019-05-01T19:41:03.585Z,3.40
2019-05-01T19:43:08.624Z,3.30
2019-05-01T19:45:12.557Z,3.00
2019-05-01T19:47:17.895Z,2.90
2019-05-01T19:49:24.557Z,3.30
2019-05-01T19:51:26.939Z,4.40
2019-05-01T19:53:30.853Z,4.40
2019-05-01T19:55:34.497Z,5.70
2019-05-01T19:57:38.159Z,5.40
2019-05-01T19:59:41.836Z,6.10
2019-05-01T20:01:49.243Z,6.30
2019-05-01T20:03:52.759Z,6.60
2019-05-01T20:05:59.655Z,7.30
2019-05-01T20:08:01.607Z,7.60
2019-05-01T20:10:08.327Z,8.00
2019-05-01T20:12:12.033Z,8.40
2019-05-01T20:14:15.761Z,9.00
2019-05-01T20:16:20.596Z,9.50
2019-05-01T20:18:24.407Z,10.10
2019-05-01T20:20:28.046Z,10.10
2019-05-01T20:22:31.792Z,10.10
2019-05-01T20:24:35.519Z,10.00
2019-05-01T20:26:39.175Z,9.20
2019-05-01T20:28:42.875Z,9.40
2019-05-01T20:30:49.447Z,9.90
2019-05-01T20:32:51.936Z,9.80
2019-05-01T20:34:55.571Z,9.80
2019-05-01T20:36:59.193Z,10.00
2019-05-01T20:39:04.521Z,10.30
2019-05-01T20:41:10.304Z,9.80
2019-05-01T20:43:13.518Z,10.80
2019-05-01T20:45:18.357Z,10.50
2019-05-01T20:47:34.415Z,11.30
2019-05-01T20:49:28.169Z,11.50
2019-05-01T20:51:32.110Z,11.80
2019-05-01T20:53:35.785Z,11.60
2019-05-01T20:55:39.950Z,12.40
2019-05-01T20:57:45.274Z,12.50
2019-05-01T20:59:48.948Z,12.80
2019-05-01T21:01:52.855Z,12.20
2019-05-01T21:04:15.971Z,12.80
2019-05-01T21:06:21.740Z,13.20
2019-05-01T21:08:29.033Z,13.10
2019-05-01T21:10:51.071Z,14.00
2019-05-01T21:12:54.803Z,14.00
2019-05-01T21:14:58.415Z,14.10
2019-05-01T21:17:02.263Z,13.80
2019-05-01T21:19:05.864Z,14.40
2019-05-01T21:21:09.531Z,14.80
2019-05-01T21:23:14.392Z,15.00
2019-05-01T21:25:18.402Z,14.90
2019-05-01T21:27:24.213Z,14.30
2019-05-01T21:29:27.870Z,14.20
2019-05-01T21:31:31.428Z,14.20
2019-05-01T21:33:35.216Z,15.00
2019-05-01T21:35:38.873Z,15.50
2019-05-01T21:37:42.597Z,15.60
2019-05-01T21:39:46.581Z,15.50
2019-05-01T21:41:50.229Z,15.80
2019-05-01T21:43:54.450Z,15.00
2019-05-01T21:45:58.305Z,15.20
2019-05-01T21:48:03.083Z,15.00
2019-05-01T21:50:07.113Z,16.10
2019-05-01T21:52:10.690Z,15.90
2019-05-01T21:54:15.970Z,15.90
2019-05-01T21:56:19.978Z,16.60
2019-05-01T21:58:28.281Z,16.50
2019-05-01T22:00:30.794Z,16.90
2019-05-01T22:02:34.498Z,16.70
2019-05-01T22:04:38.111Z,16.20
2019-05-01T22:06:46.628Z,16.60
2019-05-01T22:08:47.322Z,16.90
2019-05-01T22:10:52.300Z,17.10
2019-05-01T22:12:56.250Z,17.10
2019-05-01T22:15:01.674Z,17.30
2019-05-01T22:17:06.910Z,17.70
2019-05-01T22:19:21.608Z,18.00
2019-05-01T22:21:43.353Z,18.10
2019-05-01T22:23:57.400Z,17.40
2019-05-01T22:26:02.234Z,17.50
2019-05-01T22:28:07.631Z,18.60
2019-05-01T22:30:24.542Z,18.60
2019-05-01T22:32:35.894Z,18.60
2019-05-01T22:34:53.032Z,18.50
2019-05-01T22:36:56.803Z,18.50
2019-05-01T22:39:02.265Z,18.70
2019-05-01T22:41:10.420Z,18.90
2019-05-01T22:43:14.075Z,19.10
2019-05-01T22:45:20.793Z,19.70
2019-05-01T22:47:24.509Z,20.00
2019-05-01T22:49:28.264Z,20.10
2019-05-01T22:51:31.921Z,20.00
2019-05-01T22:53:35.579Z,20.20
2019-05-01T22:55:39.268Z,20.10
2019-05-01T22:57:42.875Z,20.00
2019-05-01T22:59:46.443Z,20.50
2019-05-01T23:01:52.946Z,20.60
2019-05-01T23:03:58.935Z,21.00
2019-05-01T23:06:06.330Z,20.90
2019-05-01T23:08:08.336Z,21.30
2019-05-01T23:10:12.573Z,21.40
2019-05-01T23:12:16.279Z,20.90
2019-05-01T23:14:20.176Z,21.60
2019-05-01T23:16:28.685Z,21.30
2019-05-01T23:18:30.853Z,21.70
2019-05-01T23:20:34.711Z,22.20
2019-05-01T23:22:39.941Z,22.00
2019-05-01T23:24:43.692Z,21.70
2019-05-01T23:26:48.070Z,21.80
2019-05-01T23:28:52.786Z,22.20
2019-05-01T23:30:56.567Z,21.60
2019-05-01T23:33:00.300Z,21.80
2019-05-01T23:35:05.239Z,22.80
2019-05-01T23:37:08.861Z,22.30
2019-05-01T23:39:13.787Z,22.50
2019-05-01T23:41:17.477Z,22.00
2019-05-01T23:43:23.103Z,22.90
2019-05-01T23:45:27.764Z,22.70
2019-05-01T23:47:31.549Z,23.10
2019-05-01T23:49:35.145Z,22.90
2019-05-01T23:51:38.772Z,23.90
2019-05-01T23:53:47.736Z,25.20
2019-05-01T23:55:47.731Z,24.30
2019-05-01T23:57:51.408Z,24.80
2019-05-01T23:59:55.240Z,25.00
